Weather at London-Corbin Airport/Magee Field

Public forecast

Using degrees Fahrenheit for public forecast. Weather courtesy of forecast.io.

Current aviation weather report (METAR) for London-Corbin Airport/Magee Field

2024/07/14 01:53 (retrieved 33 minutes ago)

KLOZ 140153Z AUTO 00000KT 10SM CLR 28/21 A3018 RMK AO2 SLP203 T02780206

Closest aviation forecast (TAF) to London-Corbin Airport/Magee Field

Forecast is more than 12 hours old.

Closest forecast is Godman Army Air Field, 102.6 nm (190.1 km) WNW.

2024/07/12 19:06 (retrieved 1 day ago)

TAF KFTK 121900Z 1219/1401 24010KT 9999 VCTS SCT040CB SCT075 BKN110 BKN250 QNH3002INS BECMG 1300/1301 28005KT 9999 NSW SCT250 QNH3005INS TX31/1220Z TN20/1311Z LAST NO AMDS AFT 1303 NEXT 1511